Terminal Aerodrome Forecast
Issued by NWS Atlanta, GA

Home | Current Version | Previous Version | Text Only | Print | Product List | Glossary On
Versions: 1 2 3 4 5 6 7 8 9 10 11 12 13 14 15 16 17 18 19 20 21 22 23 24 25 26 27 28 29 30 31 32 33 34 35 36 37 38 39
967
FTUS42 KFFC 231541 AAB
TAFATL
TAF AMD
KATL 231541Z 2316/2418 10006KT P6SM SCT010
     FM231700 10007KT P6SM SCT035
     FM231900 11007KT P6SM SCT050
     FM240000 12005KT P6SM FEW250
     FM240600 12004KT P6SM SCT040
     FM241500 16008KT P6SM FEW040=

USA.gov is the U.S. government's official web portal to all federal, state and local government web resources and services.